Time;durP1;ratioP1;P1;durP2;ratioP2;P2;SDS_P1;SDS_P2;PMS_P1;PMS_P2;Temp;Humidity;BMP_temperature;BMP_pressure;BME280_temperature;BME280_humidity;BME280_pressure;Samples;Min_cycle;Max_cycle;Signal;HPM_P1;HPM_P2
2021/06/18 00:04:29;;;;;;;2.40;1.95;;;;;;;21.23;53.02;99993.41;10586785;28;20118;-71
2021/06/18 00:09:31;;;;;;;3.85;1.83;;;;;;;21.33;52.82;99991.75;10587068;28;20060;-71
2021/06/18 00:14:33;;;;;;;3.13;1.80;;;;;;;21.24;53.14;99981.75;10586428;28;20036;-71
2021/06/18 00:19:35;;;;;;;2.28;1.73;;;;;;;21.35;52.24;99984.50;10586306;28;20082;-71
2021/06/18 00:24:37;;;;;;;1.83;1.70;;;;;;;21.14;52.88;99976.25;10567573;28;20051;-71
2021/06/18 00:29:39;;;;;;;2.47;2.22;;;;;;;20.98;53.27;99971.22;10586220;28;20481;-71
2021/06/18 00:34:40;;;;;;;2.38;2.10;;;;;;;21.38;52.34;99969.06;10585809;28;20051;-70
2021/06/18 00:39:42;;;;;;;2.95;2.10;;;;;;;21.20;52.78;99965.09;10585724;28;20101;-70
2021/06/18 00:44:44;;;;;;;3.42;1.90;;;;;;;21.10;52.94;99959.59;10584724;28;20484;-68
2021/06/18 00:49:46;;;;;;;1.63;1.52;;;;;;;21.05;52.94;99956.44;10585298;28;20058;-69
2021/06/18 00:54:49;;;;;;;2.17;1.98;;;;;;;21.06;53.04;99962.63;10584850;28;20092;-70
2021/06/18 00:59:50;;;;;;;2.25;2.05;;;;;;;20.96;53.18;99964.31;10566474;28;20139;-69
2021/06/18 01:04:52;;;;;;;4.05;1.70;;;;;;;20.96;53.21;99964.31;10584808;28;20564;-70
2021/06/18 01:10:14;;;;;;;2.53;1.88;;;;;;;20.92;53.61;99964.53;10584377;28;20048;-70
2021/06/18 01:15:27;;;;;;;2.97;1.73;;;;;;;20.84;53.66;99966.09;10584332;28;20043;-70
2021/06/18 01:20:51;;;;;;;2.63;2.00;;;;;;;20.75;54.05;99964.09;10566290;28;20046;-70
2021/06/18 01:26:14;;;;;;;2.92;1.70;;;;;;;20.80;53.91;99970.78;10583871;28;20055;-70
2021/06/18 01:31:25;;;;;;;2.25;1.83;;;;;;;20.81;53.45;99974.34;10583532;28;20036;-70
2021/06/18 01:36:30;;;;;;;3.15;2.20;;;;;;;20.76;54.10;99969.34;10583785;28;20096;-70
2021/06/18 01:41:32;;;;;;;3.55;2.22;;;;;;;20.85;53.33;99963.31;10582919;28;20480;-69
2021/06/18 01:46:36;;;;;;;3.97;2.53;;;;;;;20.75;53.65;99956.09;10583556;28;20040;-69
2021/06/18 01:51:39;;;;;;;2.20;2.00;;;;;;;20.80;53.89;99952.09;10582359;28;20118;-69
2021/06/18 01:56:42;;;;;;;2.70;2.10;;;;;;;20.71;53.96;99954.63;10581659;28;20043;-69
2021/06/18 02:01:47;;;;;;;2.92;2.03;;;;;;;20.76;53.79;99953.31;10582097;28;20048;-69
2021/06/18 02:06:51;;;;;;;2.00;1.77;;;;;;;20.59;54.24;99940.38;10564138;28;20047;-69
2021/06/18 02:11:53;;;;;;;3.63;2.15;;;;;;;20.47;54.72;99944.78;10581843;28;20048;-69
2021/06/18 02:17:01;;;;;;;4.63;2.40;;;;;;;20.47;54.60;99951.94;10582557;28;20080;-69
2021/06/18 02:22:06;;;;;;;3.47;2.45;;;;;;;20.27;55.46;99964.06;10581676;28;20043;-69
2021/06/18 02:27:12;;;;;;;5.07;2.63;;;;;;;20.30;55.15;99962.03;10563861;28;20062;-70
2021/06/18 02:32:15;;;;;;;3.30;2.38;;;;;;;20.19;55.33;99969.09;10563160;28;20070;-69
2021/06/18 02:37:17;;;;;;;2.70;2.00;;;;;;;20.15;55.62;99968.50;10581536;28;20039;-69
2021/06/18 02:42:19;;;;;;;2.60;2.35;;;;;;;20.07;56.03;99961.03;10563382;28;20050;-70
2021/06/18 02:47:43;;;;;;;3.83;1.90;;;;;;;20.14;55.82;99950.75;10581611;28;20054;-69
2021/06/18 02:53:11;;;;;;;3.25;2.25;;;;;;;20.00;56.16;99972.25;10581586;28;20063;-69
2021/06/18 02:58:21;;;;;;;2.92;2.72;;;;;;;20.09;55.74;99974.25;10581877;28;20050;-70
2021/06/18 03:03:28;;;;;;;3.50;3.00;;;;;;;19.98;56.39;99979.53;10562853;28;20042;-69
2021/06/18 03:08:34;;;;;;;3.05;2.65;;;;;;;19.70;57.10;99980.63;10585949;28;20067;-69
2021/06/18 03:13:41;;;;;;;2.75;2.55;;;;;;;19.72;57.01;99989.38;10580210;22;20040;-73
2021/06/18 03:18:46;;;;;;;2.13;2.03;;;;;;;19.82;56.68;99998.44;10548924;28;20485;-72
2021/06/18 03:23:49;;;;;;;3.05;2.47;;;;;;;19.79;56.53;99998.63;10550105;28;20036;-74
2021/06/18 03:28:53;;;;;;;4.25;2.20;;;;;;;19.79;56.75;99993.31;10548611;28;20048;-74
2021/06/18 03:33:56;;;;;;;3.20;2.88;;;;;;;19.79;56.79;100001.31;10548215;28;20481;-74
2021/06/18 03:38:58;;;;;;;3.05;2.75;;;;;;;19.78;56.71;99994.28;10547586;28;20036;-74
2021/06/18 03:44:01;;;;;;;4.15;2.58;;;;;;;19.91;56.67;99997.78;10590345;28;20135;-74
2021/06/18 03:49:03;;;;;;;2.95;2.63;;;;;;;19.85;57.21;100001.75;10590607;28;20050;-74
2021/06/18 03:54:08;;;;;;;2.60;2.40;;;;;;;19.74;57.36;99993.63;10589927;28;20504;-74
2021/06/18 03:59:13;;;;;;;4.20;2.83;;;;;;;19.82;57.39;99993.94;10589958;28;20035;-74
2021/06/18 04:04:16;;;;;;;2.75;2.35;;;;;;;19.83;57.89;99998.34;10590037;28;20056;-75
2021/06/18 04:09:18;;;;;;;2.80;2.60;;;;;;;19.86;58.18;99999.91;10590253;28;20420;-74
2021/06/18 04:14:20;;;;;;;3.83;3.38;;;;;;;20.34;56.62;100008.03;10560934;28;20047;-75
2021/06/18 04:19:23;;;;;;;2.60;2.40;;;;;;;20.30;56.96;100007.41;10527435;28;20355;-74
2021/06/18 04:24:24;;;;;;;2.90;2.70;;;;;;;20.39;56.73;100005.88;10527247;28;20185;-74
2021/06/18 04:29:26;;;;;;;4.38;3.28;;;;;;;20.66;56.89;100000.38;10527458;28;20048;-74
2021/06/18 04:34:28;;;;;;;3.60;2.78;;;;;;;20.79;55.47;99994.97;10527356;28;20044;-74
2021/06/18 04:39:29;;;;;;;4.80;3.13;;;;;;;21.11;54.67;99993.38;10527548;28;20052;-74
2021/06/18 04:44:31;;;;;;;4.25;3.10;;;;;;;21.28;55.17;99991.25;10545732;28;20490;-72
2021/06/18 04:49:33;;;;;;;5.00;3.00;;;;;;;21.51;53.99;99990.34;10545635;28;20114;-73
2021/06/18 04:54:34;;;;;;;5.72;3.45;;;;;;;21.77;52.93;99995.47;10527394;28;20048;-72
2021/06/18 04:59:37;;;;;;;3.05;2.60;;;;;;;21.87;52.80;99996.47;10544905;28;20044;-73
2021/06/18 05:04:39;;;;;;;3.65;3.35;;;;;;;22.01;53.07;100000.72;10545050;28;20046;-74
2021/06/18 05:09:40;;;;;;;4.43;2.85;;;;;;;22.51;52.13;100001.16;10544568;28;20044;-72
2021/06/18 05:14:42;;;;;;;2.88;2.67;;;;;;;22.62;52.13;100006.47;10544622;28;20034;-74
2021/06/18 05:19:44;;;;;;;5.25;3.30;;;;;;;23.44;49.57;100001.38;10544617;28;20040;-73
2021/06/18 05:24:45;;;;;;;4.30;4.00;;;;;;;23.91;48.76;100001.81;10544648;28;20040;-72
2021/06/18 05:29:47;;;;;;;5.57;3.22;;;;;;;24.20;48.29;99998.34;10545357;28;20055;-73
2021/06/18 05:34:48;;;;;;;3.25;2.95;;;;;;;24.66;46.77;99993.25;10545036;28;20378;-72
2021/06/18 05:39:50;;;;;;;3.03;2.63;;;;;;;24.96;46.78;99991.41;10543885;28;20097;-73
2021/06/18 05:44:52;;;;;;;2.65;2.45;;;;;;;25.56;45.88;99999.31;10544594;28;20370;-73
2021/06/18 05:49:53;;;;;;;6.20;2.65;;;;;;;25.52;45.18;99995.19;10544630;28;20386;-73
2021/06/18 05:54:55;;;;;;;4.20;2.40;;;;;;;25.97;45.03;99989.97;10543547;28;20036;-73
2021/06/18 05:59:56;;;;;;;4.72;2.83;;;;;;;26.55;43.50;99989.66;10543821;28;20043;-73
2021/06/18 06:04:58;;;;;;;7.38;3.03;;;;;;;26.64;44.41;99996.84;10544528;28;20040;-73
2021/06/18 06:09:59;;;;;;;4.05;2.35;;;;;;;27.09;42.84;99993.25;10542875;28;20090;-73
2021/06/18 06:15:01;;;;;;;2.97;2.67;;;;;;;26.97;42.84;99996.31;10525725;28;20050;-74
2021/06/18 06:20:04;;;;;;;4.53;2.47;;;;;;;27.40;41.50;99998.19;10544527;28;20055;-73
2021/06/18 06:25:06;;;;;;;5.13;2.50;;;;;;;27.59;42.86;99999.84;10543535;28;20040;-73
2021/06/18 06:30:09;;;;;;;3.45;2.10;;;;;;;27.88;42.28;99986.88;10543456;28;20127;-73
2021/06/18 06:35:11;;;;;;;8.48;2.67;;;;;;;28.37;40.49;99991.66;10525896;28;20059;-73
2021/06/18 06:40:13;;;;;;;3.90;2.33;;;;;;;28.70;39.35;99995.28;10546063;28;20048;-72
2021/06/18 06:45:15;;;;;;;5.80;2.30;;;;;;;28.64;40.43;99988.69;10554278;28;20478;-72
2021/06/18 06:50:18;;;;;;;5.32;2.47;;;;;;;28.97;40.58;99990.63;10554579;28;20067;-72
2021/06/18 06:55:20;;;;;;;3.30;2.42;;;;;;;29.14;39.45;99992.31;10534519;28;20051;-72
2021/06/18 07:00:22;;;;;;;3.42;2.20;;;;;;;29.18;40.15;99990.13;10554387;28;20047;-73
2021/06/18 07:05:24;;;;;;;3.30;2.00;;;;;;;29.58;38.47;99984.69;10553167;28;20143;-73
2021/06/18 07:10:25;;;;;;;3.17;2.47;;;;;;;29.79;39.33;99985.97;10553994;28;20040;-73
2021/06/18 07:15:27;;;;;;;2.83;2.13;;;;;;;29.76;38.82;99983.63;10547775;28;20043;-72
2021/06/18 07:20:29;;;;;;;2.13;1.90;;;;;;;29.98;37.67;99984.72;10551674;28;20044;-73
2021/06/18 07:25:30;;;;;;;3.13;2.03;;;;;;;30.07;37.05;99989.09;10549883;28;20086;-73
2021/06/18 07:30:33;;;;;;;5.90;1.95;;;;;;;29.99;38.67;99986.41;10548140;28;20477;-73
2021/06/18 07:35:35;;;;;;;5.53;1.80;;;;;;;29.96;36.32;99975.91;10549983;28;20036;-73
2021/06/18 07:40:37;;;;;;;2.92;1.67;;;;;;;30.05;36.58;99972.16;10549349;28;20105;-73
2021/06/18 07:45:38;;;;;;;1.77;1.60;;;;;;;30.11;35.93;99969.59;10550402;28;20040;-72
2021/06/18 07:50:42;;;;;;;3.83;1.88;;;;;;;29.97;36.10;99973.06;10550081;28;20089;-72
2021/06/18 07:55:43;;;;;;;3.92;1.92;;;;;;;30.06;34.52;99980.13;10549881;28;20056;-73
2021/06/18 08:00:46;;;;;;;2.15;1.60;;;;;;;29.86;35.51;99974.25;10550320;28;20051;-72
2021/06/18 08:05:48;;;;;;;2.20;1.50;;;;;;;30.19;35.69;99976.84;10548435;28;20048;-73
2021/06/18 08:10:53;;;;;;;2.38;2.03;;;;;;;30.22;34.13;99976.50;10547230;28;20048;-73
2021/06/18 08:15:55;;;;;;;3.10;1.63;;;;;;;30.20;35.59;99970.44;10545559;28;20160;-72
2021/06/18 08:20:57;;;;;;;2.70;1.70;;;;;;;30.60;34.88;99974.78;10545261;28;20059;-73
2021/06/18 08:25:59;;;;;;;2.33;1.48;;;;;;;30.74;35.36;99967.75;10546593;28;20048;-73
2021/06/18 08:31:04;;;;;;;3.10;1.58;;;;;;;30.43;33.87;99970.47;10545591;28;20523;-73
2021/06/18 08:36:06;;;;;;;3.03;1.65;;;;;;;30.86;33.92;99957.34;10545456;28;20044;-73
2021/06/18 08:41:08;;;;;;;4.10;1.73;;;;;;;31.41;33.17;99945.31;10545622;28;20195;-73
2021/06/18 08:46:09;;;;;;;3.45;1.35;;;;;;;31.49;33.45;99931.63;10545040;28;20040;-72
2021/06/18 08:51:13;;;;;;;1.92;1.73;;;;;;;32.01;32.24;99938.00;10545297;28;20032;-73
2021/06/18 08:56:14;;;;;;;3.55;1.70;;;;;;;31.83;32.91;99930.25;10544657;28;20043;-73
2021/06/18 09:01:16;;;;;;;3.47;1.60;;;;;;;32.33;31.98;99925.84;10544556;28;20050;-72
2021/06/18 09:06:24;;;;;;;2.63;1.63;;;;;;;31.83;32.96;99928.38;10544635;28;20078;-73
2021/06/18 09:11:37;;;;;;;3.45;1.73;;;;;;;32.35;33.28;99926.47;10553384;22;21164;-70
2021/06/18 09:16:41;;;;;;;3.97;1.58;;;;;;;32.63;32.37;99923.88;10500518;28;20055;-70
2021/06/18 09:21:42;;;;;;;4.67;1.60;;;;;;;32.69;31.65;99928.53;10500341;28;20110;-70
2021/06/18 09:26:44;;;;;;;6.20;1.83;;;;;;;32.58;32.25;99927.19;10482475;28;20516;-71
2021/06/18 09:31:49;;;;;;;2.45;1.75;;;;;;;32.79;31.68;99923.59;10481848;28;20153;-70
2021/06/18 09:37:10;;;;;;;;;;;;;;;32.91;31.51;99926.69;10500526;28;20044;-70
2021/06/18 09:42:12;;;;;;;3.05;1.58;;;;;;;32.13;32.19;99928.31;10500018;28;19928;-71
2021/06/18 09:47:20;;;;;;;1.50;1.40;;;;;;;32.97;31.74;99931.31;10499269;28;20044;-70
2021/06/18 09:52:23;;;;;;;3.95;1.83;;;;;;;33.31;31.99;99921.53;10499175;28;20029;-71
2021/06/18 09:57:44;;;;;;;3.88;1.63;;;;;;;33.88;31.61;99934.91;10480738;28;20049;-70
2021/06/18 10:02:56;;;;;;;2.45;1.40;;;;;;;33.44;31.13;99934.44;10482377;28;20036;-68
2021/06/18 10:07:58;;;;;;;4.65;2.00;;;;;;;33.33;30.78;99930.34;10481345;28;20154;-69
2021/06/18 10:13:00;;;;;;;1.50;1.40;;;;;;;33.21;30.48;99931.97;10499289;28;20037;-69
2021/06/18 10:18:02;;;;;;;3.17;1.77;;;;;;;33.75;29.92;99917.66;10498013;28;20119;-69
2021/06/18 10:23:16;;;;;;;1.80;1.70;;;;;;;33.82;29.58;99926.69;10497172;28;20494;-68
2021/06/18 10:28:28;;;;;;;5.25;1.85;;;;;;;33.94;31.61;99925.06;10498698;28;20056;-68
2021/06/18 10:33:35;;;;;;;2.15;1.70;;;;;;;34.13;29.03;99915.31;10499069;28;20045;-68
2021/06/18 10:38:50;;;;;;;3.83;1.45;;;;;;;34.65;30.45;99913.78;10498736;28;20113;-68
2021/06/18 10:43:57;;;;;;;9.98;2.42;;;;;;;34.49;29.18;99919.63;10481013;28;20463;-70
2021/06/18 10:49:05;;;;;;;4.47;1.85;;;;;;;34.55;29.92;99911.47;10498198;28;20115;-69
2021/06/18 10:54:44;;;;;;;5.95;1.83;;;;;;;34.58;28.76;99908.31;10498362;28;20398;-68
2021/06/18 10:59:48;;;;;;;2.97;1.58;;;;;;;34.25;29.26;99899.19;10498249;28;20490;-69
2021/06/18 11:04:53;;;;;;;2.20;1.40;;;;;;;34.31;29.97;99907.41;10479897;28;20032;-69
2021/06/18 11:10:04;;;;;;;2.38;1.58;;;;;;;34.19;28.75;99910.94;10480401;28;20290;-69
2021/06/18 11:15:06;;;;;;;3.17;1.45;;;;;;;34.54;31.68;99898.03;10497354;28;20039;-69
2021/06/18 11:20:11;;;;;;;1.60;1.50;;;;;;;34.43;30.70;99893.97;10497398;28;20497;-69
2021/06/18 11:25:42;;;;;;;1.75;1.40;;;;;;;34.64;28.85;99891.09;10498413;28;20044;-70
2021/06/18 11:31:16;;;;;;;3.58;1.67;;;;;;;34.47;28.80;99889.81;10496130;28;20080;-69
2021/06/18 11:36:21;;;;;;;2.15;1.35;;;;;;;34.33;29.48;99885.34;10504552;28;20086;-69
2021/06/18 11:41:31;;;;;;;2.55;1.40;;;;;;;34.58;28.46;99891.94;10486600;28;20081;-70
2021/06/18 11:46:34;;;;;;;3.00;1.63;;;;;;;34.71;29.11;99884.78;10504460;28;20041;-69
2021/06/18 11:51:36;;;;;;;2.27;1.73;;;;;;;34.64;29.75;99874.72;10503287;28;20064;-69
2021/06/18 11:56:40;;;;;;;3.00;1.93;;;;;;;34.87;28.97;99873.47;10486614;28;20044;-70
2021/06/18 12:01:42;;;;;;;3.28;1.92;;;;;;;34.47;31.29;99878.06;10503050;28;20448;-68
2021/06/18 12:06:44;;;;;;;3.13;2.00;;;;;;;34.35;27.76;99873.16;10516054;28;20468;-69
2021/06/18 12:11:53;;;;;;;3.05;1.85;;;;;;;34.53;30.38;99869.91;10508755;28;20123;-68
2021/06/18 12:16:55;;;;;;;2.35;1.63;;;;;;;34.53;29.07;99869.03;10527622;28;20048;-69
2021/06/18 12:22:02;;;;;;;1.98;1.73;;;;;;;34.42;30.66;99864.19;10511096;28;20068;-68
2021/06/18 12:27:14;;;;;;;5.03;1.73;;;;;;;34.73;27.93;99867.16;10485222;28;20059;-69
2021/06/18 12:32:16;;;;;;;3.28;1.67;;;;;;;34.59;28.97;99863.59;10501741;28;20041;-69
2021/06/18 12:37:21;;;;;;;2.42;1.80;;;;;;;34.62;29.32;99859.59;10486946;28;20053;-69
2021/06/18 12:42:29;;;;;;;4.07;1.90;;;;;;;34.59;29.42;99854.56;10542970;28;20051;-69
2021/06/18 12:47:31;;;;;;;7.28;2.00;;;;;;;34.84;30.28;99858.34;10525418;28;20052;-70
2021/06/18 12:52:47;;;;;;;3.83;2.15;;;;;;;34.50;30.09;99850.38;10542619;28;20443;-68
2021/06/18 12:57:48;;;;;;;2.85;1.75;;;;;;;34.43;30.41;99849.47;10499395;28;20059;-68
2021/06/18 13:02:55;;;;;;;2.10;1.85;;;;;;;34.31;29.61;99843.78;10500997;28;20040;-69
2021/06/18 13:07:57;;;;;;;4.03;2.13;;;;;;;34.46;30.17;99847.19;10482743;28;20040;-68
2021/06/18 13:12:59;;;;;;;2.38;1.98;;;;;;;34.75;28.53;99842.38;10499831;28;20048;-68
2021/06/18 13:18:02;;;;;;;6.88;1.80;;;;;;;34.88;27.62;99843.19;10482368;28;20544;-68
2021/06/18 13:23:24;;;;;;;4.35;1.90;;;;;;;34.56;28.48;99838.59;10482076;28;20044;-68
2021/06/18 13:28:55;;;;;;;3.42;1.50;;;;;;;34.55;27.36;99842.38;10499477;28;20049;-69
2021/06/18 13:33:57;;;;;;;2.63;1.80;;;;;;;34.88;28.93;99842.38;10380783;28;20136;-69
2021/06/18 13:39:09;;;;;;;2.50;2.25;;;;;;;34.80;28.09;99839.88;10390279;28;20068;-68
2021/06/18 13:44:11;;;;;;;2.72;1.52;;;;;;;34.78;28.33;99831.03;10371628;28;20050;-70
2021/06/18 13:49:16;;;;;;;5.63;1.60;;;;;;;34.20;27.23;99828.03;10387820;28;20088;-70
2021/06/18 13:54:18;;;;;;;2.50;1.90;;;;;;;34.08;27.69;99830.53;10411836;28;20080;-70
2021/06/18 13:59:21;;;;;;;4.25;1.70;;;;;;;34.35;27.90;99825.94;10410826;28;20442;-70
2021/06/18 14:04:23;;;;;;;3.50;1.50;;;;;;;34.40;26.87;99812.53;10377407;28;20155;-70
2021/06/18 14:09:24;;;;;;;3.25;1.92;;;;;;;34.25;27.51;99798.25;10407337;28;20060;-70
2021/06/18 14:14:26;;;;;;;11.38;1.95;;;;;;;34.22;27.16;99801.38;10498215;28;20043;-68
2021/06/18 14:19:28;;;;;;;1.67;1.55;;;;;;;34.50;26.94;99806.69;10498282;28;20048;-68
2021/06/18 14:24:29;;;;;;;3.30;1.83;;;;;;;34.54;28.90;99797.88;10498900;28;20410;-69
2021/06/18 14:29:31;;;;;;;2.40;1.95;;;;;;;34.50;29.08;99798.50;10528029;28;20089;-69
2021/06/18 14:34:34;;;;;;;3.30;1.83;;;;;;;34.60;27.91;99790.72;10539422;28;20043;-69
2021/06/18 14:39:35;;;;;;;2.30;1.80;;;;;;;34.45;28.33;99790.91;10539368;28;20058;-69
2021/06/18 14:44:38;;;;;;;2.55;1.50;;;;;;;34.56;26.46;99795.75;10538281;28;20127;-69
2021/06/18 14:49:40;;;;;;;2.72;1.67;;;;;;;35.03;26.01;99790.28;10521862;28;20067;-69
2021/06/18 14:54:42;;;;;;;2.47;1.45;;;;;;;34.74;28.17;99791.56;10539957;28;20055;-68
2021/06/18 14:59:44;;;;;;;4.38;1.80;;;;;;;34.94;28.07;99772.41;10539127;28;20489;-70
2021/06/18 15:04:45;;;;;;;2.20;1.83;;;;;;;35.43;27.19;99776.50;10543788;28;20377;-71
2021/06/18 15:09:48;;;;;;;2.67;1.55;;;;;;;35.02;26.67;99785.84;10547636;28;20040;-71
2021/06/18 15:14:50;;;;;;;1.80;1.70;;;;;;;35.02;27.33;99783.13;10485461;22;20498;-80
2021/06/18 15:19:51;;;;;;;1.73;1.38;;;;;;;34.71;27.10;99781.06;10438828;28;20053;-80
2021/06/18 15:24:53;;;;;;;2.67;1.50;;;;;;;34.50;27.44;99773.94;10436353;28;20033;-82
2021/06/18 15:29:54;;;;;;;2.38;1.70;;;;;;;34.79;27.12;99775.38;10437290;28;20096;-80
2021/06/18 15:34:56;;;;;;;3.30;1.63;;;;;;;35.00;28.45;99768.84;10402968;28;20099;-80
2021/06/18 15:40:00;;;;;;;2.65;1.70;;;;;;;34.34;28.29;99761.53;10435349;28;20045;-80
2021/06/18 15:45:03;;;;;;;1.90;1.57;;;;;;;35.08;27.51;99758.53;10416808;28;20078;-82
2021/06/18 15:50:06;;;;;;;2.35;1.77;;;;;;;35.44;27.43;99761.75;10440369;28;20042;-81
2021/06/18 15:55:08;;;;;;;3.13;1.50;;;;;;;35.29;26.98;99751.13;10417448;28;20053;-81
2021/06/18 16:00:10;;;;;;;2.50;1.70;;;;;;;35.02;28.03;99747.63;10436870;28;20037;-82
2021/06/18 16:05:13;;;;;;;7.82;2.30;;;;;;;34.79;28.19;99751.63;10424896;28;20112;-79
2021/06/18 16:10:15;;;;;;;1.90;1.80;;;;;;;34.34;30.25;99756.06;10431382;28;20058;-82
2021/06/18 16:15:17;;;;;;;4.50;2.05;;;;;;;33.79;30.28;99756.19;10436188;28;20447;-81
2021/06/18 16:20:18;;;;;;;1.98;1.80;;;;;;;33.52;30.10;99751.72;10441455;28;20045;-80
2021/06/18 16:25:20;;;;;;;2.05;1.75;;;;;;;33.02;31.02;99751.03;10418893;28;20056;-80
2021/06/18 16:30:22;;;;;;;3.00;1.85;;;;;;;32.93;31.95;99754.94;10437854;28;20049;-80
2021/06/18 16:35:25;;;;;;;2.83;1.70;;;;;;;32.79;29.69;99745.84;10419970;28;20103;-80
2021/06/18 16:40:26;;;;;;;4.00;1.92;;;;;;;32.35;31.75;99749.66;10438151;28;20099;-80
2021/06/18 16:45:28;;;;;;;4.22;2.08;;;;;;;32.07;31.65;99749.66;10421349;28;20045;-81
2021/06/18 16:50:30;;;;;;;2.45;2.25;;;;;;;31.93;32.32;99751.41;10440657;28;20049;-80
2021/06/18 16:55:31;;;;;;;2.13;1.70;;;;;;;31.84;33.48;99745.25;10439678;28;20076;-81
2021/06/18 17:00:33;;;;;;;2.80;1.60;;;;;;;31.65;32.98;99749.41;10424053;28;20438;-79
2021/06/18 17:05:35;;;;;;;3.03;1.80;;;;;;;31.48;33.29;99745.25;10406149;28;20505;-79
2021/06/18 17:10:42;;;;;;;3.42;2.05;;;;;;;31.42;33.20;99747.88;10440680;28;20049;-79
2021/06/18 17:15:45;;;;;;;3.28;1.73;;;;;;;31.09;34.76;99745.53;10439570;28;20046;-78
2021/06/18 17:20:46;;;;;;;2.85;1.70;;;;;;;31.13;34.34;99753.13;10421167;28;20060;-78
2021/06/18 17:25:48;;;;;;;2.25;2.00;;;;;;;30.89;35.44;99761.53;10438320;28;20083;-78
2021/06/18 17:30:50;;;;;;;2.72;1.80;;;;;;;30.91;34.68;99764.94;10420194;28;20458;-78
2021/06/18 17:35:55;;;;;;;2.40;2.00;;;;;;;30.81;34.99;99767.06;10439573;28;20037;-78
2021/06/18 17:40:57;;;;;;;;;;;;;;;30.70;35.67;99767.50;10441872;28;20069;-79
2021/06/18 17:45:59;;;;;;;3.05;2.22;;;;;;;30.70;35.29;99772.91;10440918;28;19921;-79
2021/06/18 17:51:01;;;;;;;2.20;2.00;;;;;;;30.60;35.53;99770.47;10459807;28;20048;-79
2021/06/18 17:56:03;;;;;;;3.92;2.25;;;;;;;30.57;35.67;99771.69;10425171;28;20077;-79
2021/06/18 18:01:05;;;;;;;2.63;2.25;;;;;;;30.49;35.71;99766.31;10436718;28;20491;-79
2021/06/18 18:06:11;;;;;;;4.15;2.40;;;;;;;30.31;35.92;99765.81;10421498;28;20048;-80
2021/06/18 18:11:13;;;;;;;4.45;2.25;;;;;;;30.22;36.67;99775.03;10407917;28;20056;-79
2021/06/18 18:16:14;;;;;;;4.03;2.47;;;;;;;30.06;36.70;99779.56;10432058;28;20042;-77
2021/06/18 18:21:16;;;;;;;2.67;2.20;;;;;;;29.90;36.98;99776.94;10452886;28;20057;-79
2021/06/18 18:26:18;;;;;;;2.60;2.00;;;;;;;29.70;37.52;99776.56;10435354;28;20104;-77
2021/06/18 18:31:19;;;;;;;4.43;2.88;;;;;;;29.67;37.81;99774.22;10454385;28;20128;-77
2021/06/18 18:36:21;;;;;;;4.57;3.20;;;;;;;29.37;38.70;99786.69;10454121;28;20101;-79
2021/06/18 18:41:23;;;;;;;3.78;3.45;;;;;;;29.24;38.56;99794.53;10438516;28;20049;-77
2021/06/18 18:46:25;;;;;;;3.25;3.00;;;;;;;29.01;39.28;99780.91;10453009;28;20041;-78
2021/06/18 18:51:26;;;;;;;3.15;2.85;;;;;;;28.70;39.97;99787.03;10434845;28;20053;-80
2021/06/18 18:56:28;;;;;;;2.95;2.45;;;;;;;28.55;40.63;99796.84;10436055;28;20055;-79
2021/06/18 19:01:31;;;;;;;5.13;2.88;;;;;;;28.47;42.11;99794.16;10459247;28;20033;-78
2021/06/18 19:06:33;;;;;;;3.10;2.72;;;;;;;28.22;41.42;99791.41;10448868;28;20049;-78
2021/06/18 19:11:36;;;;;;;3.05;2.45;;;;;;;28.08;41.55;99795.63;10448734;28;20049;-78
2021/06/18 19:16:43;;;;;;;4.43;3.10;;;;;;;27.99;42.14;99796.63;10415001;23;20045;-72
2021/06/18 19:21:46;;;;;;;3.92;2.65;;;;;;;27.94;42.26;99809.81;10422506;28;20045;-71
2021/06/18 19:26:48;;;;;;;3.47;2.55;;;;;;;27.84;42.50;99806.38;10421879;28;20034;-72
2021/06/18 19:31:50;;;;;;;6.70;3.22;;;;;;;27.72;43.12;99807.69;10421758;28;20079;-72
2021/06/18 19:36:52;;;;;;;3.85;3.08;;;;;;;27.57;43.34;99818.25;10405870;28;20065;-71
2021/06/18 19:41:57;;;;;;;3.08;2.88;;;;;;;27.44;43.04;99815.16;10422678;28;20060;-71
2021/06/18 19:46:59;;;;;;;;;;;;;;;27.23;43.51;99811.03;10424743;28;20041;-73
2021/06/18 19:52:02;;;;;;;3.45;3.00;;;;;;;27.06;44.18;99823.56;10427744;28;19947;-72
2021/06/18 19:57:07;;;;;;;4.38;2.90;;;;;;;26.95;44.22;99822.97;10414166;28;20104;-72
2021/06/18 20:02:10;;;;;;;2.90;2.70;;;;;;;26.82;44.24;99824.25;10429137;28;20047;-73
2021/06/18 20:07:12;;;;;;;3.15;2.92;;;;;;;26.70;44.64;99820.13;10425489;28;20110;-72
2021/06/18 20:12:14;;;;;;;2.90;2.70;;;;;;;26.60;44.92;99820.22;10428151;28;20037;-72
2021/06/18 20:17:16;;;;;;;2.65;2.45;;;;;;;26.53;45.11;99834.50;10427855;28;20450;-72
2021/06/18 20:22:20;;;;;;;2.75;2.55;;;;;;;26.47;45.64;99833.25;10410162;28;20099;-73
2021/06/18 20:27:21;;;;;;;3.50;3.20;;;;;;;26.47;45.44;99835.09;10429744;28;20097;-73
2021/06/18 20:32:23;;;;;;;4.15;2.63;;;;;;;26.41;45.36;99837.38;10410906;28;20049;-72
2021/06/18 20:37:25;;;;;;;3.03;2.33;;;;;;;26.30;45.88;99844.88;10425452;28;20045;-72
2021/06/18 20:42:27;;;;;;;2.80;2.60;;;;;;;26.24;46.09;99848.16;10405783;28;20041;-72
2021/06/18 20:47:29;;;;;;;3.33;2.90;;;;;;;26.01;47.26;99835.16;10423818;28;20135;-72
2021/06/18 20:52:30;;;;;;;3.25;2.95;;;;;;;25.96;47.05;99834.78;10422806;28;20045;-73
2021/06/18 20:57:32;;;;;;;3.63;3.08;;;;;;;25.76;47.32;99846.63;10422287;28;20045;-72
2021/06/18 21:02:34;;;;;;;4.30;3.33;;;;;;;25.63;47.99;99849.66;10404131;28;20049;-73
2021/06/18 21:07:36;;;;;;;4.35;3.25;;;;;;;25.45;47.90;99848.75;10423351;28;20041;-72
2021/06/18 21:12:40;;;;;;;3.67;3.35;;;;;;;25.27;47.86;99852.22;10419868;22;20033;-74
2021/06/18 21:17:44;;;;;;;5.15;2.78;;;;;;;25.24;47.91;99846.31;10505028;28;20044;-76
2021/06/18 21:22:47;;;;;;;3.55;2.90;;;;;;;25.27;47.85;99852.22;10545978;28;20044;-78
2021/06/18 21:27:50;;;;;;;4.82;2.83;;;;;;;25.24;47.66;99844.47;10588056;28;20047;-74
2021/06/18 21:32:53;;;;;;;2.80;2.60;;;;;;;25.14;47.96;99843.63;10586460;28;20105;-75
2021/06/18 21:37:55;;;;;;;2.83;2.63;;;;;;;25.36;47.15;99855.88;10585771;28;20126;-74
2021/06/18 21:42:56;;;;;;;3.78;2.78;;;;;;;25.57;46.36;99851.13;10585954;28;20044;-74
2021/06/18 21:47:58;;;;;;;2.70;2.50;;;;;;;25.28;47.21;99847.69;10585807;28;20050;-74
2021/06/18 21:53:00;;;;;;;3.15;2.25;;;;;;;25.13;47.95;99841.94;10584486;28;20484;-74
2021/06/18 21:58:03;;;;;;;3.38;2.72;;;;;;;25.07;48.02;99839.81;10566601;28;20082;-75
2021/06/18 22:03:04;;;;;;;3.40;2.63;;;;;;;25.17;47.83;99844.19;10583947;28;20040;-75
2021/06/18 22:08:06;;;;;;;3.60;2.95;;;;;;;25.22;47.40;99835.69;10584395;28;20548;-75
2021/06/18 22:13:09;;;;;;;4.55;2.85;;;;;;;25.04;47.75;99830.19;10583401;28;20040;-75
2021/06/18 22:18:14;;;;;;;3.22;2.95;;;;;;;24.87;48.42;99834.47;10566696;28;20060;-74
2021/06/18 22:23:15;;;;;;;3.70;2.65;;;;;;;24.45;49.66;99839.38;10583504;28;20067;-73
2021/06/18 22:28:17;;;;;;;3.70;3.13;;;;;;;24.27;49.89;99831.16;10584004;28;20054;-74
2021/06/18 22:33:25;;;;;;;3.47;2.78;;;;;;;24.14;50.46;99835.94;10565033;28;20469;-74
2021/06/18 22:38:27;;;;;;;;;;;;;;;24.05;50.73;99840.31;10565543;28;20435;-74
2021/06/18 22:43:30;;;;;;;3.40;3.15;;;;;;;23.94;50.61;99835.06;10582299;28;19927;-74
2021/06/18 22:48:31;;;;;;;4.03;3.00;;;;;;;23.94;50.85;99839.59;10582971;28;20060;-76
2021/06/18 22:53:33;;;;;;;3.05;2.75;;;;;;;23.85;51.13;99836.75;10564813;28;20196;-74
2021/06/18 22:58:35;;;;;;;3.60;3.25;;;;;;;23.79;51.16;99834.63;10581202;28;20054;-74
2021/06/18 23:03:38;;;;;;;3.28;3.03;;;;;;;23.75;51.67;99830.50;10583382;28;20048;-74
2021/06/18 23:08:39;;;;;;;3.53;2.65;;;;;;;23.60;51.67;99837.25;10583002;28;20047;-74
2021/06/18 23:13:42;;;;;;;3.25;2.95;;;;;;;23.77;51.52;99833.91;10564942;28;20039;-75
2021/06/18 23:18:43;;;;;;;3.50;3.20;;;;;;;23.71;51.51;99831.78;10582659;28;20052;-74
2021/06/18 23:23:45;;;;;;;3.33;3.03;;;;;;;23.64;51.65;99835.94;10583357;28;20039;-75
2021/06/18 23:28:47;;;;;;;4.18;3.88;;;;;;;23.59;51.76;99838.19;10590759;28;20488;-75
2021/06/18 23:33:48;;;;;;;3.03;2.83;;;;;;;23.46;52.31;99843.81;10592164;28;20043;-75
2021/06/18 23:38:50;;;;;;;2.88;2.55;;;;;;;23.29;52.73;99845.31;10590589;28;20117;-75